sensor_id;sensor_type;location;lat;lon;timestamp;temperature;humidity
61004;DHT22;46889;37.310;13.582;2023-03-24T00:00:21;12.50;99.90
61004;DHT22;46889;37.310;13.582;2023-03-24T00:02:49;12.60;99.90
61004;DHT22;46889;37.310;13.582;2023-03-24T00:05:18;12.60;99.90
61004;DHT22;46889;37.310;13.582;2023-03-24T00:07:44;12.50;99.90
61004;DHT22;46889;37.310;13.582;2023-03-24T00:10:13;12.60;99.90
61004;DHT22;46889;37.310;13.582;2023-03-24T00:12:45;12.50;99.90
61004;DHT22;46889;37.310;13.582;2023-03-24T00:15:14;12.50;99.90
61004;DHT22;46889;37.310;13.582;2023-03-24T00:17:41;12.50;99.90
61004;DHT22;46889;37.310;13.582;2023-03-24T00:20:08;12.60;99.90
61004;DHT22;46889;37.310;13.582;2023-03-24T00:22:44;12.70;99.90
61004;DHT22;46889;37.310;13.582;2023-03-24T00:25:18;12.80;99.90
61004;DHT22;46889;37.310;13.582;2023-03-24T00:27:45;12.80;99.90
61004;DHT22;46889;37.310;13.582;2023-03-24T00:30:14;12.80;99.90
61004;DHT22;46889;37.310;13.582;2023-03-24T00:32:41;12.80;99.90
61004;DHT22;46889;37.310;13.582;2023-03-24T00:35:09;12.80;99.90
61004;DHT22;46889;37.310;13.582;2023-03-24T00:37:37;12.80;99.90
61004;DHT22;46889;37.310;13.582;2023-03-24T00:40:14;12.80;99.90
61004;DHT22;46889;37.310;13.582;2023-03-24T00:42:42;12.80;99.90
61004;DHT22;46889;37.310;13.582;2023-03-24T00:45:15;12.80;99.90
61004;DHT22;46889;37.310;13.582;2023-03-24T00:47:44;12.90;99.90
61004;DHT22;46889;37.310;13.582;2023-03-24T00:50:15;12.90;99.90
61004;DHT22;46889;37.310;13.582;2023-03-24T00:52:42;12.90;99.90
61004;DHT22;46889;37.310;13.582;2023-03-24T00:55:13;12.90;99.90
61004;DHT22;46889;37.310;13.582;2023-03-24T00:57:42;12.90;99.90
61004;DHT22;46889;37.310;13.582;2023-03-24T01:00:18;12.90;99.90
61004;DHT22;46889;37.310;13.582;2023-03-24T01:02:47;13.00;99.90
61004;DHT22;46889;37.310;13.582;2023-03-24T01:05:28;13.00;99.90
61004;DHT22;46889;37.310;13.582;2023-03-24T01:07:56;12.90;99.90
61004;DHT22;46889;37.310;13.582;2023-03-24T01:10:24;12.90;99.90
61004;DHT22;46889;37.310;13.582;2023-03-24T01:12:57;12.90;99.90
61004;DHT22;46889;37.310;13.582;2023-03-24T01:15:26;12.90;99.90
61004;DHT22;46889;37.310;13.582;2023-03-24T01:17:55;12.90;99.90
61004;DHT22;46889;37.310;13.582;2023-03-24T01:20:22;12.90;99.90
61004;DHT22;46889;37.310;13.582;2023-03-24T01:22:49;12.90;99.90
61004;DHT22;46889;37.310;13.582;2023-03-24T01:25:20;12.80;99.90
61004;DHT22;46889;37.310;13.582;2023-03-24T01:27:49;12.80;99.90
61004;DHT22;46889;37.310;13.582;2023-03-24T01:30:21;12.80;99.90
61004;DHT22;46889;37.310;13.582;2023-03-24T01:32:49;12.70;99.90
61004;DHT22;46889;37.310;13.582;2023-03-24T01:35:16;12.70;99.90
61004;DHT22;46889;37.310;13.582;2023-03-24T01:37:42;12.50;99.90
61004;DHT22;46889;37.310;13.582;2023-03-24T01:40:10;12.50;99.90
61004;DHT22;46889;37.310;13.582;2023-03-24T01:42:39;12.50;99.90
61004;DHT22;46889;37.310;13.582;2023-03-24T01:48:18;12.50;99.90
61004;DHT22;46889;37.310;13.582;2023-03-24T01:50:49;12.60;99.90
61004;DHT22;46889;37.310;13.582;2023-03-24T01:53:16;12.60;99.90
61004;DHT22;46889;37.310;13.582;2023-03-24T01:55:47;12.50;99.90
61004;DHT22;46889;37.310;13.582;2023-03-24T01:58:13;12.50;99.90
61004;DHT22;46889;37.310;13.582;2023-03-24T02:00:41;12.50;99.90
61004;DHT22;46889;37.310;13.582;2023-03-24T02:03:12;12.60;99.90
61004;DHT22;46889;37.310;13.582;2023-03-24T02:05:40;12.50;99.90
61004;DHT22;46889;37.310;13.582;2023-03-24T02:10:45;12.60;99.90
61004;DHT22;46889;37.310;13.582;2023-03-24T02:13:13;12.60;99.90
61004;DHT22;46889;37.310;13.582;2023-03-24T02:16:14;12.70;99.90
61004;DHT22;46889;37.310;13.582;2023-03-24T02:21:58;12.80;99.90
61004;DHT22;46889;37.310;13.582;2023-03-24T02:36:33;12.90;99.90
61004;DHT22;46889;37.310;13.582;2023-03-24T02:39:26;12.90;99.90
61004;DHT22;46889;37.310;13.582;2023-03-24T02:42:16;12.80;99.90
61004;DHT22;46889;37.310;13.582;2023-03-24T02:47:23;12.70;99.90
61004;DHT22;46889;37.310;13.582;2023-03-24T02:50:15;12.70;99.90
61004;DHT22;46889;37.310;13.582;2023-03-24T02:55:32;12.70;99.90
61004;DHT22;46889;37.310;13.582;2023-03-24T02:58:07;12.70;99.90
61004;DHT22;46889;37.310;13.582;2023-03-24T03:00:49;12.70;99.90
61004;DHT22;46889;37.310;13.582;2023-03-24T03:03:26;12.80;99.90
61004;DHT22;46889;37.310;13.582;2023-03-24T03:08:33;12.70;99.90
61004;DHT22;46889;37.310;13.582;2023-03-24T03:11:02;12.70;99.90
61004;DHT22;46889;37.310;13.582;2023-03-24T03:13:36;12.60;99.90
61004;DHT22;46889;37.310;13.582;2023-03-24T03:16:08;12.50;99.90
61004;DHT22;46889;37.310;13.582;2023-03-24T03:18:40;12.40;99.90
61004;DHT22;46889;37.310;13.582;2023-03-24T03:21:12;12.40;99.90
61004;DHT22;46889;37.310;13.582;2023-03-24T03:23:47;12.40;99.90
61004;DHT22;46889;37.310;13.582;2023-03-24T03:26:17;12.40;99.90
61004;DHT22;46889;37.310;13.582;2023-03-24T03:28:51;12.40;99.90
61004;DHT22;46889;37.310;13.582;2023-03-24T03:31:48;12.50;99.90
61004;DHT22;46889;37.310;13.582;2023-03-24T03:34:49;12.50;99.90
61004;DHT22;46889;37.310;13.582;2023-03-24T03:37:29;12.50;99.90
61004;DHT22;46889;37.310;13.582;2023-03-24T03:40:06;12.50;99.90
61004;DHT22;46889;37.310;13.582;2023-03-24T03:42:35;12.40;99.90
61004;DHT22;46889;37.310;13.582;2023-03-24T03:45:01;12.30;99.90
61004;DHT22;46889;37.310;13.582;2023-03-24T03:47:30;12.30;99.90
61004;DHT22;46889;37.310;13.582;2023-03-24T03:49:56;12.30;99.90
61004;DHT22;46889;37.310;13.582;2023-03-24T03:52:22;12.20;99.90
61004;DHT22;46889;37.310;13.582;2023-03-24T03:54:50;12.20;99.90
61004;DHT22;46889;37.310;13.582;2023-03-24T03:57:18;12.20;99.90
61004;DHT22;46889;37.310;13.582;2023-03-24T03:59:45;12.30;99.90
61004;DHT22;46889;37.310;13.582;2023-03-24T04:05:32;12.60;99.90
61004;DHT22;46889;37.310;13.582;2023-03-24T04:11:16;12.50;99.90
61004;DHT22;46889;37.310;13.582;2023-03-24T04:19:42;12.70;99.90
61004;DHT22;46889;37.310;13.582;2023-03-24T04:22:26;12.70;99.90
61004;DHT22;46889;37.310;13.582;2023-03-24T04:30:32;12.60;99.90
61004;DHT22;46889;37.310;13.582;2023-03-24T04:33:47;12.50;99.90
61004;DHT22;46889;37.310;13.582;2023-03-24T04:39:23;12.40;99.90
61004;DHT22;46889;37.310;13.582;2023-03-24T04:41:57;12.30;99.90
61004;DHT22;46889;37.310;13.582;2023-03-24T04:44:27;12.20;99.90
61004;DHT22;46889;37.310;13.582;2023-03-24T04:46:58;12.10;99.90
61004;DHT22;46889;37.310;13.582;2023-03-24T04:49:28;12.10;99.90
61004;DHT22;46889;37.310;13.582;2023-03-24T04:51:54;12.00;99.90
61004;DHT22;46889;37.310;13.582;2023-03-24T04:54:23;12.10;99.90
61004;DHT22;46889;37.310;13.582;2023-03-24T04:56:58;12.10;99.90
61004;DHT22;46889;37.310;13.582;2023-03-24T04:59:29;12.20;99.90
61004;DHT22;46889;37.310;13.582;2023-03-24T05:02:00;12.20;99.90
61004;DHT22;46889;37.310;13.582;2023-03-24T05:04:28;12.20;99.90
61004;DHT22;46889;37.310;13.582;2023-03-24T05:06:55;12.10;99.90
61004;DHT22;46889;37.310;13.582;2023-03-24T05:09:25;12.10;99.90
61004;DHT22;46889;37.310;13.582;2023-03-24T05:11:52;12.00;99.90
61004;DHT22;46889;37.310;13.582;2023-03-24T05:14:19;11.80;99.90
61004;DHT22;46889;37.310;13.582;2023-03-24T05:16:46;11.90;99.90
61004;DHT22;46889;37.310;13.582;2023-03-24T05:19:17;11.90;99.90
61004;DHT22;46889;37.310;13.582;2023-03-24T05:21:44;11.90;99.90
61004;DHT22;46889;37.310;13.582;2023-03-24T05:24:09;12.00;99.90
61004;DHT22;46889;37.310;13.582;2023-03-24T05:26:36;12.00;99.90
61004;DHT22;46889;37.310;13.582;2023-03-24T05:29:02;12.00;99.90
61004;DHT22;46889;37.310;13.582;2023-03-24T05:31:29;11.90;99.90
61004;DHT22;46889;37.310;13.582;2023-03-24T05:34:04;11.90;99.90
61004;DHT22;46889;37.310;13.582;2023-03-24T05:36:30;11.90;99.90
61004;DHT22;46889;37.310;13.582;2023-03-24T05:38:57;11.80;99.90
61004;DHT22;46889;37.310;13.582;2023-03-24T05:41:23;11.80;99.90
61004;DHT22;46889;37.310;13.582;2023-03-24T05:43:49;11.70;99.90
61004;DHT22;46889;37.310;13.582;2023-03-24T05:46:15;11.80;99.90
61004;DHT22;46889;37.310;13.582;2023-03-24T05:48:41;11.90;99.90
61004;DHT22;46889;37.310;13.582;2023-03-24T05:51:07;11.80;99.90
61004;DHT22;46889;37.310;13.582;2023-03-24T05:53:34;11.90;99.90
61004;DHT22;46889;37.310;13.582;2023-03-24T05:56:00;12.70;99.90
61004;DHT22;46889;37.310;13.582;2023-03-24T05:58:29;13.60;99.90
61004;DHT22;46889;37.310;13.582;2023-03-24T12:57:38;21.40;99.90
61004;DHT22;46889;37.310;13.582;2023-03-24T13:00:21;21.40;99.90
61004;DHT22;46889;37.310;13.582;2023-03-24T13:03:14;21.60;99.90
61004;DHT22;46889;37.310;13.582;2023-03-24T13:05:43;21.50;99.90
61004;DHT22;46889;37.310;13.582;2023-03-24T13:08:22;21.50;99.90
61004;DHT22;46889;37.310;13.582;2023-03-24T13:10:59;21.60;99.90
61004;DHT22;46889;37.310;13.582;2023-03-24T13:13:36;21.40;99.90
61004;DHT22;46889;37.310;13.582;2023-03-24T13:16:14;21.40;99.90
61004;DHT22;46889;37.310;13.582;2023-03-24T13:18:55;21.10;99.90
61004;DHT22;46889;37.310;13.582;2023-03-24T13:21:24;21.40;99.90
61004;DHT22;46889;37.310;13.582;2023-03-24T13:28:54;21.30;99.90
61004;DHT22;46889;37.310;13.582;2023-03-24T13:31:23;21.30;99.90
61004;DHT22;46889;37.310;13.582;2023-03-24T13:33:53;21.20;99.90
61004;DHT22;46889;37.310;13.582;2023-03-24T13:36:28;21.10;99.90
61004;DHT22;46889;37.310;13.582;2023-03-24T13:39:00;21.10;99.90
61004;DHT22;46889;37.310;13.582;2023-03-24T13:41:32;21.20;99.90
61004;DHT22;46889;37.310;13.582;2023-03-24T13:44:24;20.90;99.90
61004;DHT22;46889;37.310;13.582;2023-03-24T13:47:16;20.60;99.90
61004;DHT22;46889;37.310;13.582;2023-03-24T13:49:58;20.70;99.90
61004;DHT22;46889;37.310;13.582;2023-03-24T13:55:06;20.80;99.90
61004;DHT22;46889;37.310;13.582;2023-03-24T13:57:34;20.80;99.90
61004;DHT22;46889;37.310;13.582;2023-03-24T14:00:18;20.80;99.90
61004;DHT22;46889;37.310;13.582;2023-03-24T14:02:50;20.90;99.90
61004;DHT22;46889;37.310;13.582;2023-03-24T14:05:39;20.80;99.90
61004;DHT22;46889;37.310;13.582;2023-03-24T14:10:46;20.60;99.90
61004;DHT22;46889;37.310;13.582;2023-03-24T14:15:57;20.80;99.90
61004;DHT22;46889;37.310;13.582;2023-03-24T14:23:44;20.90;99.90
61004;DHT22;46889;37.310;13.582;2023-03-24T14:26:13;20.90;99.90
61004;DHT22;46889;37.310;13.582;2023-03-24T14:28:44;21.00;99.90
61004;DHT22;46889;37.310;13.582;2023-03-24T14:36:42;20.90;99.90
61004;DHT22;46889;37.310;13.582;2023-03-24T14:41:49;20.80;99.90
61004;DHT22;46889;37.310;13.582;2023-03-24T14:49:51;20.60;99.90
61004;DHT22;46889;37.310;13.582;2023-03-24T14:52:31;20.60;99.90
61004;DHT22;46889;37.310;13.582;2023-03-24T14:55:11;20.40;99.90
61004;DHT22;46889;37.310;13.582;2023-03-24T14:57:46;20.10;99.90
61004;DHT22;46889;37.310;13.582;2023-03-24T15:02:55;20.10;99.90
61004;DHT22;46889;37.310;13.582;2023-03-24T15:05:28;20.20;99.90
61004;DHT22;46889;37.310;13.582;2023-03-24T15:08:07;20.40;99.90
61004;DHT22;46889;37.310;13.582;2023-03-24T15:10:39;20.50;99.90
61004;DHT22;46889;37.310;13.582;2023-03-24T15:16:15;20.30;99.90
61004;DHT22;46889;37.310;13.582;2023-03-24T15:18:48;20.00;99.90
61004;DHT22;46889;37.310;13.582;2023-03-24T15:21:33;20.00;99.90
61004;DHT22;46889;37.310;13.582;2023-03-24T15:24:01;20.00;99.90
61004;DHT22;46889;37.310;13.582;2023-03-24T15:26:30;20.10;99.90
61004;DHT22;46889;37.310;13.582;2023-03-24T15:29:04;20.10;99.90
61004;DHT22;46889;37.310;13.582;2023-03-24T15:31:32;20.10;99.90
61004;DHT22;46889;37.310;13.582;2023-03-24T15:34:04;20.20;99.90
61004;DHT22;46889;37.310;13.582;2023-03-24T15:36:39;20.10;99.90
61004;DHT22;46889;37.310;13.582;2023-03-24T15:39:18;20.10;99.90
61004;DHT22;46889;37.310;13.582;2023-03-24T15:41:46;20.00;99.90
61004;DHT22;46889;37.310;13.582;2023-03-24T15:44:25;20.00;99.90
61004;DHT22;46889;37.310;13.582;2023-03-24T15:46:57;20.20;99.90
61004;DHT22;46889;37.310;13.582;2023-03-24T15:49:28;20.10;99.90
61004;DHT22;46889;37.310;13.582;2023-03-24T15:54:52;19.60;99.90
61004;DHT22;46889;37.310;13.582;2023-03-24T15:57:21;19.90;99.90
61004;DHT22;46889;37.310;13.582;2023-03-24T15:59:50;19.90;99.90
61004;DHT22;46889;37.310;13.582;2023-03-24T16:02:40;19.70;99.90
61004;DHT22;46889;37.310;13.582;2023-03-24T16:05:28;19.60;99.90
61004;DHT22;46889;37.310;13.582;2023-03-24T16:08:00;19.70;99.90
61004;DHT22;46889;37.310;13.582;2023-03-24T16:10:37;19.70;99.90
61004;DHT22;46889;37.310;13.582;2023-03-24T16:13:18;19.60;99.90
61004;DHT22;46889;37.310;13.582;2023-03-24T16:18:25;19.40;99.90
61004;DHT22;46889;37.310;13.582;2023-03-24T16:20:53;19.40;99.90
61004;DHT22;46889;37.310;13.582;2023-03-24T16:23:20;19.30;99.90
61004;DHT22;46889;37.310;13.582;2023-03-24T16:25:47;19.20;99.90
61004;DHT22;46889;37.310;13.582;2023-03-24T16:28:19;19.20;99.90
61004;DHT22;46889;37.310;13.582;2023-03-24T16:30:49;19.30;99.90
61004;DHT22;46889;37.310;13.582;2023-03-24T16:33:16;18.90;99.90
61004;DHT22;46889;37.310;13.582;2023-03-24T16:35:45;18.80;99.90
61004;DHT22;46889;37.310;13.582;2023-03-24T16:38:12;18.60;99.90
61004;DHT22;46889;37.310;13.582;2023-03-24T16:40:47;18.40;99.90
61004;DHT22;46889;37.310;13.582;2023-03-24T16:43:13;18.40;99.90
61004;DHT22;46889;37.310;13.582;2023-03-24T16:45:40;18.30;99.90
61004;DHT22;46889;37.310;13.582;2023-03-24T16:48:09;18.30;99.90
61004;DHT22;46889;37.310;13.582;2023-03-24T16:50:40;18.30;99.90
61004;DHT22;46889;37.310;13.582;2023-03-24T16:53:07;18.40;99.90
61004;DHT22;46889;37.310;13.582;2023-03-24T16:55:37;18.20;99.90
61004;DHT22;46889;37.310;13.582;2023-03-24T16:58:05;18.20;99.90
61004;DHT22;46889;37.310;13.582;2023-03-24T17:00:33;18.00;99.90
61004;DHT22;46889;37.310;13.582;2023-03-24T17:03:02;18.00;99.90
61004;DHT22;46889;37.310;13.582;2023-03-24T17:05:36;17.80;99.90
61004;DHT22;46889;37.310;13.582;2023-03-24T17:08:03;17.70;99.90
61004;DHT22;46889;37.310;13.582;2023-03-24T17:10:31;17.60;99.90
61004;DHT22;46889;37.310;13.582;2023-03-24T17:12:57;17.60;99.90
61004;DHT22;46889;37.310;13.582;2023-03-24T17:15:28;17.60;99.90
61004;DHT22;46889;37.310;13.582;2023-03-24T17:17:56;17.50;99.90
61004;DHT22;46889;37.310;13.582;2023-03-24T17:20:23;17.40;99.90
61004;DHT22;46889;37.310;13.582;2023-03-24T17:22:54;17.30;99.90
61004;DHT22;46889;37.310;13.582;2023-03-24T17:25:22;17.30;99.90
61004;DHT22;46889;37.310;13.582;2023-03-24T17:27:51;17.10;99.90
61004;DHT22;46889;37.310;13.582;2023-03-24T17:30:20;17.10;99.90
61004;DHT22;46889;37.310;13.582;2023-03-24T17:32:48;16.90;99.90
61004;DHT22;46889;37.310;13.582;2023-03-24T17:35:19;16.80;99.90
61004;DHT22;46889;37.310;13.582;2023-03-24T17:37:49;16.80;99.90
61004;DHT22;46889;37.310;13.582;2023-03-24T17:40:17;16.60;99.90
61004;DHT22;46889;37.310;13.582;2023-03-24T17:42:45;16.50;99.90
61004;DHT22;46889;37.310;13.582;2023-03-24T17:45:13;16.40;99.90
61004;DHT22;46889;37.310;13.582;2023-03-24T17:47:40;16.40;99.90
61004;DHT22;46889;37.310;13.582;2023-03-24T17:50:07;16.40;99.90
61004;DHT22;46889;37.310;13.582;2023-03-24T17:52:45;16.40;99.90
61004;DHT22;46889;37.310;13.582;2023-03-24T17:55:12;16.30;99.90
61004;DHT22;46889;37.310;13.582;2023-03-24T17:57:39;16.30;99.90
61004;DHT22;46889;37.310;13.582;2023-03-24T18:00:06;16.30;99.90
61004;DHT22;46889;37.310;13.582;2023-03-24T18:02:41;16.20;99.90
61004;DHT22;46889;37.310;13.582;2023-03-24T18:05:08;16.30;99.90
61004;DHT22;46889;37.310;13.582;2023-03-24T18:07:37;16.30;99.90
61004;DHT22;46889;37.310;13.582;2023-03-24T18:10:04;16.20;99.90
61004;DHT22;46889;37.310;13.582;2023-03-24T18:12:33;16.20;99.90
61004;DHT22;46889;37.310;13.582;2023-03-24T18:15:01;16.20;99.90
61004;DHT22;46889;37.310;13.582;2023-03-24T18:17:26;16.20;99.90
61004;DHT22;46889;37.310;13.582;2023-03-24T18:19:53;16.10;99.90
61004;DHT22;46889;37.310;13.582;2023-03-24T18:22:19;16.10;99.90
61004;DHT22;46889;37.310;13.582;2023-03-24T18:24:45;16.10;99.90
61004;DHT22;46889;37.310;13.582;2023-03-24T18:27:11;16.10;99.90
61004;DHT22;46889;37.310;13.582;2023-03-24T18:29:37;16.10;99.90
61004;DHT22;46889;37.310;13.582;2023-03-24T18:32:07;16.10;99.90
61004;DHT22;46889;37.310;13.582;2023-03-24T18:34:34;16.10;99.90
61004;DHT22;46889;37.310;13.582;2023-03-24T18:37:01;16.00;99.90
61004;DHT22;46889;37.310;13.582;2023-03-24T18:39:27;16.00;99.90
61004;DHT22;46889;37.310;13.582;2023-03-24T18:41:53;16.00;99.90
61004;DHT22;46889;37.310;13.582;2023-03-24T18:44:19;16.00;99.90
61004;DHT22;46889;37.310;13.582;2023-03-24T18:46:47;16.00;99.90
61004;DHT22;46889;37.310;13.582;2023-03-24T18:49:13;16.00;99.90
61004;DHT22;46889;37.310;13.582;2023-03-24T18:51:43;16.00;99.90
61004;DHT22;46889;37.310;13.582;2023-03-24T18:54:11;16.00;99.90
61004;DHT22;46889;37.310;13.582;2023-03-24T18:56:40;16.00;99.90
61004;DHT22;46889;37.310;13.582;2023-03-24T18:59:06;15.90;99.90
61004;DHT22;46889;37.310;13.582;2023-03-24T19:01:34;16.00;99.90
61004;DHT22;46889;37.310;13.582;2023-03-24T19:04:03;16.00;99.90
61004;DHT22;46889;37.310;13.582;2023-03-24T19:06:35;15.90;99.90
61004;DHT22;46889;37.310;13.582;2023-03-24T19:09:02;15.90;99.90
61004;DHT22;46889;37.310;13.582;2023-03-24T19:11:30;15.90;99.90
61004;DHT22;46889;37.310;13.582;2023-03-24T19:13:56;15.90;99.90
61004;DHT22;46889;37.310;13.582;2023-03-24T19:16:23;15.90;99.90
61004;DHT22;46889;37.310;13.582;2023-03-24T19:18:50;15.90;99.90
61004;DHT22;46889;37.310;13.582;2023-03-24T19:21:18;15.80;99.90
61004;DHT22;46889;37.310;13.582;2023-03-24T19:23:47;15.70;99.90
61004;DHT22;46889;37.310;13.582;2023-03-24T19:26:14;15.70;99.90
61004;DHT22;46889;37.310;13.582;2023-03-24T19:28:44;15.70;99.90
61004;DHT22;46889;37.310;13.582;2023-03-24T19:31:14;15.60;99.90
61004;DHT22;46889;37.310;13.582;2023-03-24T19:33:43;15.60;99.90
61004;DHT22;46889;37.310;13.582;2023-03-24T19:36:10;15.60;99.90
61004;DHT22;46889;37.310;13.582;2023-03-24T19:38:37;15.60;99.90
61004;DHT22;46889;37.310;13.582;2023-03-24T19:41:09;15.60;99.90
61004;DHT22;46889;37.310;13.582;2023-03-24T19:43:38;15.60;99.90
61004;DHT22;46889;37.310;13.582;2023-03-24T19:46:06;15.50;99.90
61004;DHT22;46889;37.310;13.582;2023-03-24T19:48:34;15.50;99.90
61004;DHT22;46889;37.310;13.582;2023-03-24T19:51:00;15.50;99.90
61004;DHT22;46889;37.310;13.582;2023-03-24T19:53:27;15.40;99.90
61004;DHT22;46889;37.310;13.582;2023-03-24T19:55:55;15.30;99.90
61004;DHT22;46889;37.310;13.582;2023-03-24T19:58:22;15.30;99.90
61004;DHT22;46889;37.310;13.582;2023-03-24T20:00:51;15.30;99.90
61004;DHT22;46889;37.310;13.582;2023-03-24T20:03:18;15.20;99.90
61004;DHT22;46889;37.310;13.582;2023-03-24T20:05:44;15.20;99.90
61004;DHT22;46889;37.310;13.582;2023-03-24T20:08:10;15.20;99.90
61004;DHT22;46889;37.310;13.582;2023-03-24T20:10:37;15.20;99.90
61004;DHT22;46889;37.310;13.582;2023-03-24T20:13:06;15.30;99.90
61004;DHT22;46889;37.310;13.582;2023-03-24T20:15:32;15.20;99.90
61004;DHT22;46889;37.310;13.582;2023-03-24T20:17:58;15.20;99.90
61004;DHT22;46889;37.310;13.582;2023-03-24T20:20:24;15.20;99.90
61004;DHT22;46889;37.310;13.582;2023-03-24T20:22:50;15.10;99.90
61004;DHT22;46889;37.310;13.582;2023-03-24T20:25:17;15.10;99.90
61004;DHT22;46889;37.310;13.582;2023-03-24T20:27:45;15.00;99.90
61004;DHT22;46889;37.310;13.582;2023-03-24T20:30:14;15.00;99.90
61004;DHT22;46889;37.310;13.582;2023-03-24T20:32:41;15.00;99.90
61004;DHT22;46889;37.310;13.582;2023-03-24T20:35:08;15.00;99.90
61004;DHT22;46889;37.310;13.582;2023-03-24T20:37:35;15.00;99.90
61004;DHT22;46889;37.310;13.582;2023-03-24T20:40:07;15.00;99.90
61004;DHT22;46889;37.310;13.582;2023-03-24T20:42:54;14.90;99.90
61004;DHT22;46889;37.310;13.582;2023-03-24T20:45:21;14.90;99.90
61004;DHT22;46889;37.310;13.582;2023-03-24T20:47:47;14.80;99.90
61004;DHT22;46889;37.310;13.582;2023-03-24T20:50:14;14.90;99.90
61004;DHT22;46889;37.310;13.582;2023-03-24T20:52:41;14.90;99.90
61004;DHT22;46889;37.310;13.582;2023-03-24T20:55:12;14.90;99.90
61004;DHT22;46889;37.310;13.582;2023-03-24T20:57:38;14.80;99.90
61004;DHT22;46889;37.310;13.582;2023-03-24T21:00:05;14.80;99.90
61004;DHT22;46889;37.310;13.582;2023-03-24T21:02:41;14.70;99.90
61004;DHT22;46889;37.310;13.582;2023-03-24T21:05:09;14.70;99.90
61004;DHT22;46889;37.310;13.582;2023-03-24T21:07:35;14.70;99.90
61004;DHT22;46889;37.310;13.582;2023-03-24T21:10:04;14.70;99.90
61004;DHT22;46889;37.310;13.582;2023-03-24T21:12:31;14.70;99.90
61004;DHT22;46889;37.310;13.582;2023-03-24T21:14:57;14.70;99.90
61004;DHT22;46889;37.310;13.582;2023-03-24T21:17:24;14.70;99.90
61004;DHT22;46889;37.310;13.582;2023-03-24T21:20:00;14.70;99.90
61004;DHT22;46889;37.310;13.582;2023-03-24T21:22:36;14.60;99.90
61004;DHT22;46889;37.310;13.582;2023-03-24T21:25:13;14.70;99.90
61004;DHT22;46889;37.310;13.582;2023-03-24T21:27:40;14.60;99.90
61004;DHT22;46889;37.310;13.582;2023-03-24T21:30:07;14.60;99.90
61004;DHT22;46889;37.310;13.582;2023-03-24T21:32:39;14.60;99.90
61004;DHT22;46889;37.310;13.582;2023-03-24T21:35:05;14.50;99.90
61004;DHT22;46889;37.310;13.582;2023-03-24T21:37:34;14.50;99.90
61004;DHT22;46889;37.310;13.582;2023-03-24T21:40:02;14.50;99.90
61004;DHT22;46889;37.310;13.582;2023-03-24T21:42:40;14.50;99.90
61004;DHT22;46889;37.310;13.582;2023-03-24T21:45:12;14.50;99.90
61004;DHT22;46889;37.310;13.582;2023-03-24T21:47:40;14.50;99.90
61004;DHT22;46889;37.310;13.582;2023-03-24T21:50:09;14.40;99.90
61004;DHT22;46889;37.310;13.582;2023-03-24T21:52:38;14.40;99.90
61004;DHT22;46889;37.310;13.582;2023-03-24T21:55:11;14.40;99.90
61004;DHT22;46889;37.310;13.582;2023-03-24T21:57:43;14.40;99.90
61004;DHT22;46889;37.310;13.582;2023-03-24T22:00:12;14.40;99.90
61004;DHT22;46889;37.310;13.582;2023-03-24T22:02:40;14.40;99.90
61004;DHT22;46889;37.310;13.582;2023-03-24T22:05:14;14.40;99.90
61004;DHT22;46889;37.310;13.582;2023-03-24T22:07:42;14.30;99.90
61004;DHT22;46889;37.310;13.582;2023-03-24T22:10:13;14.30;99.90
61004;DHT22;46889;37.310;13.582;2023-03-24T22:12:41;14.30;99.90
61004;DHT22;46889;37.310;13.582;2023-03-24T22:15:09;14.30;99.90
61004;DHT22;46889;37.310;13.582;2023-03-24T22:17:36;14.20;99.90
61004;DHT22;46889;37.310;13.582;2023-03-24T22:20:03;14.20;99.90
61004;DHT22;46889;37.310;13.582;2023-03-24T22:22:36;14.20;99.90
61004;DHT22;46889;37.310;13.582;2023-03-24T22:25:04;14.20;99.90
61004;DHT22;46889;37.310;13.582;2023-03-24T22:27:33;14.20;99.90
61004;DHT22;46889;37.310;13.582;2023-03-24T22:30:00;14.20;99.90
61004;DHT22;46889;37.310;13.582;2023-03-24T22:32:26;14.10;99.90
61004;DHT22;46889;37.310;13.582;2023-03-24T22:34:54;14.10;99.90
61004;DHT22;46889;37.310;13.582;2023-03-24T22:37:20;14.10;99.90
61004;DHT22;46889;37.310;13.582;2023-03-24T22:39:47;14.00;99.90
61004;DHT22;46889;37.310;13.582;2023-03-24T22:42:13;14.00;99.90
61004;DHT22;46889;37.310;13.582;2023-03-24T22:44:42;14.00;99.90
61004;DHT22;46889;37.310;13.582;2023-03-24T22:47:08;14.00;99.90
61004;DHT22;46889;37.310;13.582;2023-03-24T22:49:35;14.00;99.90
61004;DHT22;46889;37.310;13.582;2023-03-24T22:52:05;14.00;99.90
61004;DHT22;46889;37.310;13.582;2023-03-24T22:54:37;14.00;99.90
61004;DHT22;46889;37.310;13.582;2023-03-24T22:57:03;14.00;99.90
61004;DHT22;46889;37.310;13.582;2023-03-24T22:59:29;14.00;99.90
61004;DHT22;46889;37.310;13.582;2023-03-24T23:02:01;14.00;99.90
61004;DHT22;46889;37.310;13.582;2023-03-24T23:04:28;13.90;99.90
61004;DHT22;46889;37.310;13.582;2023-03-24T23:06:54;13.80;99.90
61004;DHT22;46889;37.310;13.582;2023-03-24T23:09:22;13.80;99.90
61004;DHT22;46889;37.310;13.582;2023-03-24T23:11:49;13.80;99.90
61004;DHT22;46889;37.310;13.582;2023-03-24T23:14:15;13.80;99.90
61004;DHT22;46889;37.310;13.582;2023-03-24T23:16:42;13.70;99.90
61004;DHT22;46889;37.310;13.582;2023-03-24T23:19:10;13.60;99.90
61004;DHT22;46889;37.310;13.582;2023-03-24T23:21:37;13.60;99.90
61004;DHT22;46889;37.310;13.582;2023-03-24T23:24:04;13.40;99.90
61004;DHT22;46889;37.310;13.582;2023-03-24T23:26:31;13.40;99.90
61004;DHT22;46889;37.310;13.582;2023-03-24T23:28:58;13.40;99.90
61004;DHT22;46889;37.310;13.582;2023-03-24T23:31:27;13.40;99.90
61004;DHT22;46889;37.310;13.582;2023-03-24T23:33:55;13.30;99.90
61004;DHT22;46889;37.310;13.582;2023-03-24T23:36:22;13.20;99.90
61004;DHT22;46889;37.310;13.582;2023-03-24T23:38:52;13.20;99.90
61004;DHT22;46889;37.310;13.582;2023-03-24T23:41:19;13.30;99.90
61004;DHT22;46889;37.310;13.582;2023-03-24T23:43:48;13.20;99.90
61004;DHT22;46889;37.310;13.582;2023-03-24T23:46:15;13.20;99.90
61004;DHT22;46889;37.310;13.582;2023-03-24T23:48:42;13.20;99.90
61004;DHT22;46889;37.310;13.582;2023-03-24T23:51:09;13.20;99.90
61004;DHT22;46889;37.310;13.582;2023-03-24T23:53:37;13.20;99.90
61004;DHT22;46889;37.310;13.582;2023-03-24T23:56:06;13.20;99.90
61004;DHT22;46889;37.310;13.582;2023-03-24T23:58:38;13.20;99.90
